sensor_id;sensor_type;location;lat;lon;timestamp;P1;durP1;ratioP1;P2;durP2;ratioP2
22024;SDS011;11176;51.448;6.650;2022-12-07T00:01:30;21.08;;;15.55;;
22024;SDS011;11176;51.448;6.650;2022-12-07T00:03:58;20.30;;;14.55;;
22024;SDS011;11176;51.448;6.650;2022-12-07T00:06:36;16.23;;;13.43;;
22024;SDS011;11176;51.448;6.650;2022-12-07T00:09:08;18.02;;;14.60;;
22024;SDS011;11176;51.448;6.650;2022-12-07T00:11:36;18.55;;;14.93;;
22024;SDS011;11176;51.448;6.650;2022-12-07T00:14:05;21.50;;;14.40;;
22024;SDS011;11176;51.448;6.650;2022-12-07T00:16:33;20.38;;;15.25;;
22024;SDS011;11176;51.448;6.650;2022-12-07T00:19:02;19.95;;;15.15;;
22024;SDS011;11176;51.448;6.650;2022-12-07T00:21:31;22.70;;;15.60;;
22024;SDS011;11176;51.448;6.650;2022-12-07T00:23:59;25.75;;;15.85;;
22024;SDS011;11176;51.448;6.650;2022-12-07T00:26:30;19.83;;;15.63;;
22024;SDS011;11176;51.448;6.650;2022-12-07T00:29:01;19.35;;;14.85;;
22024;SDS011;11176;51.448;6.650;2022-12-07T00:31:31;22.35;;;16.55;;
22024;SDS011;11176;51.448;6.650;2022-12-07T00:34:01;20.17;;;16.00;;
22024;SDS011;11176;51.448;6.650;2022-12-07T00:36:27;21.85;;;16.27;;
22024;SDS011;11176;51.448;6.650;2022-12-07T00:38:54;20.88;;;16.02;;
22024;SDS011;11176;51.448;6.650;2022-12-07T00:41:24;20.58;;;16.38;;
22024;SDS011;11176;51.448;6.650;2022-12-07T00:43:51;21.48;;;16.42;;
22024;SDS011;11176;51.448;6.650;2022-12-07T00:46:20;21.70;;;16.85;;
22024;SDS011;11176;51.448;6.650;2022-12-07T00:48:47;21.27;;;16.77;;
22024;SDS011;11176;51.448;6.650;2022-12-07T00:51:15;22.95;;;16.08;;
22024;SDS011;11176;51.448;6.650;2022-12-07T00:53:43;24.88;;;17.13;;
22024;SDS011;11176;51.448;6.650;2022-12-07T00:56:17;21.67;;;16.88;;
22024;SDS011;11176;51.448;6.650;2022-12-07T00:58:59;19.10;;;16.05;;
22024;SDS011;11176;51.448;6.650;2022-12-07T01:01:29;19.08;;;16.13;;
22024;SDS011;11176;51.448;6.650;2022-12-07T01:03:57;21.73;;;16.25;;
22024;SDS011;11176;51.448;6.650;2022-12-07T01:06:25;20.88;;;16.20;;
22024;SDS011;11176;51.448;6.650;2022-12-07T01:08:51;20.77;;;16.00;;
22024;SDS011;11176;51.448;6.650;2022-12-07T01:11:19;20.20;;;15.88;;
22024;SDS011;11176;51.448;6.650;2022-12-07T01:13:49;19.05;;;16.08;;
22024;SDS011;11176;51.448;6.650;2022-12-07T01:16:17;24.10;;;17.13;;
22024;SDS011;11176;51.448;6.650;2022-12-07T01:18:45;19.83;;;15.23;;
22024;SDS011;11176;51.448;6.650;2022-12-07T01:21:15;19.58;;;15.43;;
22024;SDS011;11176;51.448;6.650;2022-12-07T01:23:44;21.58;;;16.40;;
22024;SDS011;11176;51.448;6.650;2022-12-07T01:26:12;23.08;;;16.90;;
22024;SDS011;11176;51.448;6.650;2022-12-07T01:28:40;21.83;;;16.02;;
22024;SDS011;11176;51.448;6.650;2022-12-07T01:31:11;21.55;;;16.33;;
22024;SDS011;11176;51.448;6.650;2022-12-07T01:33:42;20.15;;;16.00;;
22024;SDS011;11176;51.448;6.650;2022-12-07T01:38:41;22.02;;;14.98;;
22024;SDS011;11176;51.448;6.650;2022-12-07T01:41:08;22.45;;;15.13;;
22024;SDS011;11176;51.448;6.650;2022-12-07T01:43:35;19.63;;;14.73;;
22024;SDS011;11176;51.448;6.650;2022-12-07T01:46:03;22.35;;;15.77;;
22024;SDS011;11176;51.448;6.650;2022-12-07T01:48:32;21.63;;;16.83;;
22024;SDS011;11176;51.448;6.650;2022-12-07T01:51:08;18.65;;;14.93;;
22024;SDS011;11176;51.448;6.650;2022-12-07T01:53:38;18.55;;;15.15;;
22024;SDS011;11176;51.448;6.650;2022-12-07T01:56:08;20.00;;;15.15;;
22024;SDS011;11176;51.448;6.650;2022-12-07T01:58:40;21.23;;;16.02;;
22024;SDS011;11176;51.448;6.650;2022-12-07T02:01:07;19.25;;;15.43;;
22024;SDS011;11176;51.448;6.650;2022-12-07T02:03:36;21.50;;;15.35;;
22024;SDS011;11176;51.448;6.650;2022-12-07T02:06:05;19.27;;;14.18;;
22024;SDS011;11176;51.448;6.650;2022-12-07T02:08:33;23.80;;;15.68;;
22024;SDS011;11176;51.448;6.650;2022-12-07T02:11:00;20.02;;;15.43;;
22024;SDS011;11176;51.448;6.650;2022-12-07T02:13:30;21.20;;;15.65;;
22024;SDS011;11176;51.448;6.650;2022-12-07T02:22:01;20.25;;;15.55;;
22024;SDS011;11176;51.448;6.650;2022-12-07T02:27:36;21.58;;;15.65;;
22024;SDS011;11176;51.448;6.650;2022-12-07T02:30:17;22.20;;;15.75;;
22024;SDS011;11176;51.448;6.650;2022-12-07T02:35:27;20.17;;;15.00;;
22024;SDS011;11176;51.448;6.650;2022-12-07T02:38:01;20.15;;;14.77;;
22024;SDS011;11176;51.448;6.650;2022-12-07T02:40:42;19.33;;;14.98;;
22024;SDS011;11176;51.448;6.650;2022-12-07T02:43:38;18.77;;;14.82;;
22024;SDS011;11176;51.448;6.650;2022-12-07T02:46:20;17.23;;;14.20;;
22024;SDS011;11176;51.448;6.650;2022-12-07T02:48:49;21.83;;;14.95;;
22024;SDS011;11176;51.448;6.650;2022-12-07T02:51:18;21.60;;;15.35;;
22024;SDS011;11176;51.448;6.650;2022-12-07T02:53:45;20.15;;;13.90;;
22024;SDS011;11176;51.448;6.650;2022-12-07T03:01:28;18.05;;;13.90;;
22024;SDS011;11176;51.448;6.650;2022-12-07T03:07:15;22.70;;;14.50;;
22024;SDS011;11176;51.448;6.650;2022-12-07T03:19:03;24.05;;;15.55;;
22024;SDS011;11176;51.448;6.650;2022-12-07T03:21:42;19.55;;;14.55;;
22024;SDS011;11176;51.448;6.650;2022-12-07T03:24:15;26.33;;;19.30;;
22024;SDS011;11176;51.448;6.650;2022-12-07T03:26:49;19.92;;;15.35;;
22024;SDS011;11176;51.448;6.650;2022-12-07T03:29:24;20.90;;;14.38;;
22024;SDS011;11176;51.448;6.650;2022-12-07T03:31:58;22.15;;;14.52;;
22024;SDS011;11176;51.448;6.650;2022-12-07T03:34:32;20.15;;;13.73;;
22024;SDS011;11176;51.448;6.650;2022-12-07T03:37:08;25.75;;;15.75;;
22024;SDS011;11176;51.448;6.650;2022-12-07T03:39:45;25.02;;;15.52;;
22024;SDS011;11176;51.448;6.650;2022-12-07T03:42:18;20.90;;;15.40;;
22024;SDS011;11176;51.448;6.650;2022-12-07T03:44:45;21.65;;;15.48;;
22024;SDS011;11176;51.448;6.650;2022-12-07T03:50:04;19.27;;;14.95;;
22024;SDS011;11176;51.448;6.650;2022-12-07T03:52:43;21.55;;;14.80;;
22024;SDS011;11176;51.448;6.650;2022-12-07T03:55:17;19.15;;;14.27;;
22024;SDS011;11176;51.448;6.650;2022-12-07T03:57:49;22.63;;;15.43;;
22024;SDS011;11176;51.448;6.650;2022-12-07T04:00:19;20.90;;;14.85;;
22024;SDS011;11176;51.448;6.650;2022-12-07T04:02:47;22.73;;;16.23;;
22024;SDS011;11176;51.448;6.650;2022-12-07T04:05:18;24.45;;;15.70;;
22024;SDS011;11176;51.448;6.650;2022-12-07T04:07:45;22.90;;;16.00;;
22024;SDS011;11176;51.448;6.650;2022-12-07T04:10:11;26.20;;;16.77;;
22024;SDS011;11176;51.448;6.650;2022-12-07T04:12:38;24.45;;;15.35;;
22024;SDS011;11176;51.448;6.650;2022-12-07T04:15:05;20.98;;;15.65;;
22024;SDS011;11176;51.448;6.650;2022-12-07T04:17:32;18.83;;;14.77;;
22024;SDS011;11176;51.448;6.650;2022-12-07T04:19:58;18.75;;;14.57;;
22024;SDS011;11176;51.448;6.650;2022-12-07T04:22:25;22.45;;;15.80;;
22024;SDS011;11176;51.448;6.650;2022-12-07T04:24:52;19.13;;;14.55;;
22024;SDS011;11176;51.448;6.650;2022-12-07T04:27:18;22.15;;;15.50;;
22024;SDS011;11176;51.448;6.650;2022-12-07T04:29:45;18.42;;;14.27;;
22024;SDS011;11176;51.448;6.650;2022-12-07T04:32:12;23.77;;;14.10;;
22024;SDS011;11176;51.448;6.650;2022-12-07T04:34:38;20.77;;;13.93;;
22024;SDS011;11176;51.448;6.650;2022-12-07T04:37:05;19.63;;;14.20;;
22024;SDS011;11176;51.448;6.650;2022-12-07T04:39:32;20.08;;;13.95;;
22024;SDS011;11176;51.448;6.650;2022-12-07T04:41:59;18.75;;;13.35;;
22024;SDS011;11176;51.448;6.650;2022-12-07T04:44:26;22.50;;;13.88;;
22024;SDS011;11176;51.448;6.650;2022-12-07T04:46:54;20.63;;;13.70;;
22024;SDS011;11176;51.448;6.650;2022-12-07T04:49:21;21.77;;;14.68;;
22024;SDS011;11176;51.448;6.650;2022-12-07T04:51:48;21.05;;;14.02;;
22024;SDS011;11176;51.448;6.650;2022-12-07T04:54:16;20.45;;;13.55;;
22024;SDS011;11176;51.448;6.650;2022-12-07T04:56:43;19.13;;;14.40;;
22024;SDS011;11176;51.448;6.650;2022-12-07T04:59:13;19.15;;;13.05;;
22024;SDS011;11176;51.448;6.650;2022-12-07T05:01:40;22.80;;;14.20;;
22024;SDS011;11176;51.448;6.650;2022-12-07T05:04:07;20.15;;;12.90;;
22024;SDS011;11176;51.448;6.650;2022-12-07T05:06:34;17.23;;;12.55;;
22024;SDS011;11176;51.448;6.650;2022-12-07T05:09:01;21.70;;;13.18;;
22024;SDS011;11176;51.448;6.650;2022-12-07T05:11:28;18.08;;;12.30;;
22024;SDS011;11176;51.448;6.650;2022-12-07T05:14:08;18.42;;;12.45;;
22024;SDS011;11176;51.448;6.650;2022-12-07T05:19:04;17.05;;;12.50;;
22024;SDS011;11176;51.448;6.650;2022-12-07T05:21:32;16.88;;;12.45;;
22024;SDS011;11176;51.448;6.650;2022-12-07T05:23:59;18.42;;;12.65;;
22024;SDS011;11176;51.448;6.650;2022-12-07T05:26:25;16.98;;;12.30;;
22024;SDS011;11176;51.448;6.650;2022-12-07T05:28:52;18.08;;;11.55;;
22024;SDS011;11176;51.448;6.650;2022-12-07T05:31:20;21.35;;;12.30;;
22024;SDS011;11176;51.448;6.650;2022-12-07T05:33:47;20.05;;;12.57;;
22024;SDS011;11176;51.448;6.650;2022-12-07T05:36:14;17.15;;;11.82;;
22024;SDS011;11176;51.448;6.650;2022-12-07T05:38:40;19.75;;;12.38;;
22024;SDS011;11176;51.448;6.650;2022-12-07T05:41:07;19.63;;;11.85;;
22024;SDS011;11176;51.448;6.650;2022-12-07T05:43:55;21.60;;;11.23;;
22024;SDS011;11176;51.448;6.650;2022-12-07T05:46:22;16.42;;;11.18;;
22024;SDS011;11176;51.448;6.650;2022-12-07T05:48:48;21.35;;;12.30;;
22024;SDS011;11176;51.448;6.650;2022-12-07T05:51:15;20.02;;;12.25;;
22024;SDS011;11176;51.448;6.650;2022-12-07T05:53:42;17.75;;;11.25;;
22024;SDS011;11176;51.448;6.650;2022-12-07T05:56:08;20.73;;;12.60;;
22024;SDS011;11176;51.448;6.650;2022-12-07T05:58:35;19.30;;;12.68;;
22024;SDS011;11176;51.448;6.650;2022-12-07T06:01:20;19.48;;;12.52;;
22024;SDS011;11176;51.448;6.650;2022-12-07T06:03:46;18.45;;;11.57;;
22024;SDS011;11176;51.448;6.650;2022-12-07T06:06:13;16.50;;;11.95;;
22024;SDS011;11176;51.448;6.650;2022-12-07T06:08:39;18.48;;;11.82;;
22024;SDS011;11176;51.448;6.650;2022-12-07T06:11:06;19.65;;;11.27;;
22024;SDS011;11176;51.448;6.650;2022-12-07T06:13:50;20.73;;;12.73;;
22024;SDS011;11176;51.448;6.650;2022-12-07T06:16:17;18.13;;;11.73;;
22024;SDS011;11176;51.448;6.650;2022-12-07T06:18:44;19.15;;;12.23;;
22024;SDS011;11176;51.448;6.650;2022-12-07T06:21:10;15.13;;;10.75;;
22024;SDS011;11176;51.448;6.650;2022-12-07T06:23:37;18.20;;;11.15;;
22024;SDS011;11176;51.448;6.650;2022-12-07T06:26:03;17.70;;;11.52;;
22024;SDS011;11176;51.448;6.650;2022-12-07T06:28:30;16.38;;;11.13;;
22024;SDS011;11176;51.448;6.650;2022-12-07T06:30:57;15.60;;;11.00;;
22024;SDS011;11176;51.448;6.650;2022-12-07T06:33:25;15.80;;;9.77;;
22024;SDS011;11176;51.448;6.650;2022-12-07T06:35:52;16.55;;;11.25;;
22024;SDS011;11176;51.448;6.650;2022-12-07T06:38:19;14.15;;;10.35;;
22024;SDS011;11176;51.448;6.650;2022-12-07T06:40:46;16.75;;;11.30;;
22024;SDS011;11176;51.448;6.650;2022-12-07T06:43:12;15.95;;;11.35;;
22024;SDS011;11176;51.448;6.650;2022-12-07T06:45:40;15.85;;;11.30;;
22024;SDS011;11176;51.448;6.650;2022-12-07T06:48:07;17.67;;;11.82;;
22024;SDS011;11176;51.448;6.650;2022-12-07T06:50:34;18.33;;;11.48;;
22024;SDS011;11176;51.448;6.650;2022-12-07T06:53:00;18.85;;;11.35;;
22024;SDS011;11176;51.448;6.650;2022-12-07T06:55:26;19.13;;;11.55;;
22024;SDS011;11176;51.448;6.650;2022-12-07T06:57:53;18.08;;;11.02;;
22024;SDS011;11176;51.448;6.650;2022-12-07T07:00:19;14.23;;;10.57;;
22024;SDS011;11176;51.448;6.650;2022-12-07T07:02:47;17.65;;;11.35;;
22024;SDS011;11176;51.448;6.650;2022-12-07T07:05:14;16.85;;;11.57;;
22024;SDS011;11176;51.448;6.650;2022-12-07T07:07:42;15.25;;;10.60;;
22024;SDS011;11176;51.448;6.650;2022-12-07T07:10:28;14.88;;;10.25;;
22024;SDS011;11176;51.448;6.650;2022-12-07T07:12:55;16.60;;;10.73;;
22024;SDS011;11176;51.448;6.650;2022-12-07T07:15:23;15.48;;;10.55;;
22024;SDS011;11176;51.448;6.650;2022-12-07T07:17:49;17.83;;;11.52;;
22024;SDS011;11176;51.448;6.650;2022-12-07T07:20:16;15.63;;;11.90;;
22024;SDS011;11176;51.448;6.650;2022-12-07T07:22:43;18.33;;;11.25;;
22024;SDS011;11176;51.448;6.650;2022-12-07T07:25:09;17.58;;;11.55;;
22024;SDS011;11176;51.448;6.650;2022-12-07T07:27:36;15.77;;;11.32;;
22024;SDS011;11176;51.448;6.650;2022-12-07T07:30:03;15.65;;;11.25;;
22024;SDS011;11176;51.448;6.650;2022-12-07T07:32:30;19.10;;;11.05;;
22024;SDS011;11176;51.448;6.650;2022-12-07T07:34:57;17.35;;;10.93;;
22024;SDS011;11176;51.448;6.650;2022-12-07T07:37:23;15.23;;;11.30;;
22024;SDS011;11176;51.448;6.650;2022-12-07T07:39:50;18.33;;;10.85;;
22024;SDS011;11176;51.448;6.650;2022-12-07T07:42:16;13.90;;;10.02;;
22024;SDS011;11176;51.448;6.650;2022-12-07T07:44:44;17.20;;;10.68;;
22024;SDS011;11176;51.448;6.650;2022-12-07T07:47:11;16.27;;;10.95;;
22024;SDS011;11176;51.448;6.650;2022-12-07T07:49:37;15.68;;;10.35;;
22024;SDS011;11176;51.448;6.650;2022-12-07T07:52:09;17.00;;;10.65;;
22024;SDS011;11176;51.448;6.650;2022-12-07T07:54:36;21.92;;;15.13;;
22024;SDS011;11176;51.448;6.650;2022-12-07T07:57:02;23.42;;;14.00;;
22024;SDS011;11176;51.448;6.650;2022-12-07T07:59:29;18.48;;;12.45;;
22024;SDS011;11176;51.448;6.650;2022-12-07T08:01:55;72.55;;;40.33;;
22024;SDS011;11176;51.448;6.650;2022-12-07T08:04:22;28.27;;;19.10;;
22024;SDS011;11176;51.448;6.650;2022-12-07T08:06:48;21.65;;;13.32;;
22024;SDS011;11176;51.448;6.650;2022-12-07T08:09:15;17.63;;;11.70;;
22024;SDS011;11176;51.448;6.650;2022-12-07T08:11:41;17.13;;;11.32;;
22024;SDS011;11176;51.448;6.650;2022-12-07T08:14:08;15.82;;;11.30;;
22024;SDS011;11176;51.448;6.650;2022-12-07T08:16:37;18.80;;;11.07;;
22024;SDS011;11176;51.448;6.650;2022-12-07T08:19:04;18.90;;;12.35;;
22024;SDS011;11176;51.448;6.650;2022-12-07T08:21:31;20.92;;;12.05;;
22024;SDS011;11176;51.448;6.650;2022-12-07T08:23:57;16.67;;;11.82;;
22024;SDS011;11176;51.448;6.650;2022-12-07T08:26:24;16.42;;;11.88;;
22024;SDS011;11176;51.448;6.650;2022-12-07T08:28:52;17.55;;;12.77;;
22024;SDS011;11176;51.448;6.650;2022-12-07T08:31:19;22.65;;;12.73;;
22024;SDS011;11176;51.448;6.650;2022-12-07T08:33:46;20.13;;;12.15;;
22024;SDS011;11176;51.448;6.650;2022-12-07T08:36:13;15.88;;;11.52;;
22024;SDS011;11176;51.448;6.650;2022-12-07T08:38:40;17.60;;;12.07;;
22024;SDS011;11176;51.448;6.650;2022-12-07T08:41:21;21.52;;;12.82;;
22024;SDS011;11176;51.448;6.650;2022-12-07T08:43:47;19.42;;;11.98;;
22024;SDS011;11176;51.448;6.650;2022-12-07T08:46:25;17.27;;;12.80;;
22024;SDS011;11176;51.448;6.650;2022-12-07T08:49:03;15.65;;;10.80;;
22024;SDS011;11176;51.448;6.650;2022-12-07T08:51:33;18.48;;;11.90;;
22024;SDS011;11176;51.448;6.650;2022-12-07T08:54:01;18.90;;;12.32;;
22024;SDS011;11176;51.448;6.650;2022-12-07T08:56:31;19.38;;;11.85;;
22024;SDS011;11176;51.448;6.650;2022-12-07T08:58:57;18.05;;;11.77;;
22024;SDS011;11176;51.448;6.650;2022-12-07T09:01:25;21.55;;;13.45;;
22024;SDS011;11176;51.448;6.650;2022-12-07T09:03:51;19.45;;;13.35;;
22024;SDS011;11176;51.448;6.650;2022-12-07T09:06:18;17.10;;;11.52;;
22024;SDS011;11176;51.448;6.650;2022-12-07T09:08:46;18.88;;;12.23;;
22024;SDS011;11176;51.448;6.650;2022-12-07T09:11:15;22.15;;;12.48;;
22024;SDS011;11176;51.448;6.650;2022-12-07T09:13:41;19.63;;;11.82;;
22024;SDS011;11176;51.448;6.650;2022-12-07T09:16:08;16.70;;;10.85;;
22024;SDS011;11176;51.448;6.650;2022-12-07T09:18:35;21.10;;;10.95;;
22024;SDS011;11176;51.448;6.650;2022-12-07T09:21:01;19.58;;;10.52;;
22024;SDS011;11176;51.448;6.650;2022-12-07T09:23:28;15.77;;;10.52;;
22024;SDS011;11176;51.448;6.650;2022-12-07T09:25:54;17.15;;;9.25;;
22024;SDS011;11176;51.448;6.650;2022-12-07T09:28:20;13.93;;;8.98;;
22024;SDS011;11176;51.448;6.650;2022-12-07T09:30:48;15.25;;;9.77;;
22024;SDS011;11176;51.448;6.650;2022-12-07T09:33:35;15.35;;;9.02;;
22024;SDS011;11176;51.448;6.650;2022-12-07T09:36:03;13.95;;;9.05;;
22024;SDS011;11176;51.448;6.650;2022-12-07T09:38:30;17.92;;;9.05;;
22024;SDS011;11176;51.448;6.650;2022-12-07T09:41:03;14.32;;;8.93;;
22024;SDS011;11176;51.448;6.650;2022-12-07T09:43:30;13.07;;;8.55;;
22024;SDS011;11176;51.448;6.650;2022-12-07T09:45:57;12.85;;;7.90;;
22024;SDS011;11176;51.448;6.650;2022-12-07T09:48:30;14.65;;;8.73;;
22024;SDS011;11176;51.448;6.650;2022-12-07T09:50:58;13.05;;;9.15;;
22024;SDS011;11176;51.448;6.650;2022-12-07T09:53:27;18.67;;;9.30;;
22024;SDS011;11176;51.448;6.650;2022-12-07T09:55:56;16.67;;;9.75;;
22024;SDS011;11176;51.448;6.650;2022-12-07T09:58:23;17.13;;;9.55;;
22024;SDS011;11176;51.448;6.650;2022-12-07T10:01:34;15.40;;;7.95;;
22024;SDS011;11176;51.448;6.650;2022-12-07T10:03:48;16.02;;;8.20;;
22024;SDS011;11176;51.448;6.650;2022-12-07T10:06:18;16.95;;;7.80;;
22024;SDS011;11176;51.448;6.650;2022-12-07T10:08:44;12.70;;;7.40;;
22024;SDS011;11176;51.448;6.650;2022-12-07T10:11:11;17.95;;;8.25;;
22024;SDS011;11176;51.448;6.650;2022-12-07T10:13:41;16.25;;;8.02;;
22024;SDS011;11176;51.448;6.650;2022-12-07T10:18:50;12.02;;;6.65;;
22024;SDS011;11176;51.448;6.650;2022-12-07T10:21:18;14.98;;;6.93;;
22024;SDS011;11176;51.448;6.650;2022-12-07T10:24:02;13.15;;;5.85;;
22024;SDS011;11176;51.448;6.650;2022-12-07T10:34:42;10.40;;;6.28;;
22024;SDS011;11176;51.448;6.650;2022-12-07T10:37:18;11.85;;;5.63;;
22024;SDS011;11176;51.448;6.650;2022-12-07T10:39:50;10.88;;;6.25;;
22024;SDS011;11176;51.448;6.650;2022-12-07T10:42:36;13.88;;;5.60;;
22024;SDS011;11176;51.448;6.650;2022-12-07T10:45:36;10.60;;;6.10;;
22024;SDS011;11176;51.448;6.650;2022-12-07T10:56:29;12.15;;;4.82;;
22024;SDS011;11176;51.448;6.650;2022-12-07T11:02:15;12.38;;;4.75;;
22024;SDS011;11176;51.448;6.650;2022-12-07T11:16:01;10.48;;;4.10;;
22024;SDS011;11176;51.448;6.650;2022-12-07T11:26:41;10.77;;;5.22;;
22024;SDS011;11176;51.448;6.650;2022-12-07T11:32:31;8.98;;;4.80;;
22024;SDS011;11176;51.448;6.650;2022-12-07T11:35:17;11.57;;;4.30;;
22024;SDS011;11176;51.448;6.650;2022-12-07T11:42:01;8.05;;;3.88;;
22024;SDS011;11176;51.448;6.650;2022-12-07T11:47:30;10.18;;;4.70;;
22024;SDS011;11176;51.448;6.650;2022-12-07T11:50:05;8.88;;;3.67;;
22024;SDS011;11176;51.448;6.650;2022-12-07T11:52:48;7.13;;;4.00;;
22024;SDS011;11176;51.448;6.650;2022-12-07T11:55:39;11.43;;;3.80;;
22024;SDS011;11176;51.448;6.650;2022-12-07T12:06:38;7.03;;;3.10;;
22024;SDS011;11176;51.448;6.650;2022-12-07T12:12:21;8.00;;;3.17;;
22024;SDS011;11176;51.448;6.650;2022-12-07T12:21:16;7.05;;;3.80;;
22024;SDS011;11176;51.448;6.650;2022-12-07T12:23:48;9.00;;;3.72;;
22024;SDS011;11176;51.448;6.650;2022-12-07T12:26:21;8.10;;;3.90;;
22024;SDS011;11176;51.448;6.650;2022-12-07T12:28:52;12.20;;;4.90;;
22024;SDS011;11176;51.448;6.650;2022-12-07T12:33:52;9.23;;;2.50;;
22024;SDS011;11176;51.448;6.650;2022-12-07T12:46:52;9.70;;;3.67;;
22024;SDS011;11176;51.448;6.650;2022-12-07T12:51:50;6.50;;;3.38;;
22024;SDS011;11176;51.448;6.650;2022-12-07T13:12:57;6.38;;;3.15;;
22024;SDS011;11176;51.448;6.650;2022-12-07T13:15:31;7.65;;;2.63;;
22024;SDS011;11176;51.448;6.650;2022-12-07T13:20:54;8.88;;;3.42;;
22024;SDS011;11176;51.448;6.650;2022-12-07T13:26:20;6.40;;;3.33;;
22024;SDS011;11176;51.448;6.650;2022-12-07T13:28:47;9.27;;;3.23;;
22024;SDS011;11176;51.448;6.650;2022-12-07T13:31:37;10.27;;;3.25;;
22024;SDS011;11176;51.448;6.650;2022-12-07T13:36:59;9.65;;;2.88;;
22024;SDS011;11176;51.448;6.650;2022-12-07T13:39:28;11.18;;;2.70;;
22024;SDS011;11176;51.448;6.650;2022-12-07T13:41:56;8.43;;;2.28;;
22024;SDS011;11176;51.448;6.650;2022-12-07T13:44:25;11.98;;;2.70;;
22024;SDS011;11176;51.448;6.650;2022-12-07T13:49:49;7.20;;;2.83;;
22024;SDS011;11176;51.448;6.650;2022-12-07T13:52:26;9.13;;;3.17;;
22024;SDS011;11176;51.448;6.650;2022-12-07T13:54:58;6.45;;;2.42;;
22024;SDS011;11176;51.448;6.650;2022-12-07T13:57:29;7.72;;;3.28;;
22024;SDS011;11176;51.448;6.650;2022-12-07T13:59:57;5.35;;;2.20;;
22024;SDS011;11176;51.448;6.650;2022-12-07T14:02:28;7.47;;;2.70;;
22024;SDS011;11176;51.448;6.650;2022-12-07T14:10:40;8.70;;;4.65;;
22024;SDS011;11176;51.448;6.650;2022-12-07T14:13:26;6.40;;;2.70;;
22024;SDS011;11176;51.448;6.650;2022-12-07T14:16:15;7.93;;;2.65;;
22024;SDS011;11176;51.448;6.650;2022-12-07T14:18:44;8.77;;;2.75;;
22024;SDS011;11176;51.448;6.650;2022-12-07T14:23:37;8.55;;;2.60;;
22024;SDS011;11176;51.448;6.650;2022-12-07T14:26:15;6.95;;;3.90;;
22024;SDS011;11176;51.448;6.650;2022-12-07T14:28:45;10.27;;;3.75;;
22024;SDS011;11176;51.448;6.650;2022-12-07T14:31:17;7.05;;;3.78;;
22024;SDS011;11176;51.448;6.650;2022-12-07T14:33:58;8.38;;;4.05;;
22024;SDS011;11176;51.448;6.650;2022-12-07T14:36:25;8.13;;;3.05;;
22024;SDS011;11176;51.448;6.650;2022-12-07T14:38:51;7.18;;;4.22;;
22024;SDS011;11176;51.448;6.650;2022-12-07T14:41:20;10.25;;;3.90;;
22024;SDS011;11176;51.448;6.650;2022-12-07T14:44:11;9.10;;;3.15;;
22024;SDS011;11176;51.448;6.650;2022-12-07T14:46:58;9.23;;;3.63;;
22024;SDS011;11176;51.448;6.650;2022-12-07T14:49:44;7.18;;;3.72;;
22024;SDS011;11176;51.448;6.650;2022-12-07T14:52:13;9.10;;;3.33;;
22024;SDS011;11176;51.448;6.650;2022-12-07T14:55:03;9.52;;;3.80;;
22024;SDS011;11176;51.448;6.650;2022-12-07T14:57:30;9.48;;;3.85;;
22024;SDS011;11176;51.448;6.650;2022-12-07T14:59:57;9.50;;;3.38;;
22024;SDS011;11176;51.448;6.650;2022-12-07T15:02:23;6.95;;;3.38;;
22024;SDS011;11176;51.448;6.650;2022-12-07T15:04:49;10.35;;;4.13;;
22024;SDS011;11176;51.448;6.650;2022-12-07T15:07:20;10.65;;;4.22;;
22024;SDS011;11176;51.448;6.650;2022-12-07T15:09:48;10.65;;;4.53;;
22024;SDS011;11176;51.448;6.650;2022-12-07T15:12:15;11.45;;;5.00;;
22024;SDS011;11176;51.448;6.650;2022-12-07T15:14:41;15.75;;;7.13;;
22024;SDS011;11176;51.448;6.650;2022-12-07T15:17:09;12.35;;;7.15;;
22024;SDS011;11176;51.448;6.650;2022-12-07T15:19:54;15.02;;;7.47;;
22024;SDS011;11176;51.448;6.650;2022-12-07T15:22:21;12.50;;;4.68;;
22024;SDS011;11176;51.448;6.650;2022-12-07T15:24:47;12.55;;;5.57;;
22024;SDS011;11176;51.448;6.650;2022-12-07T15:27:14;11.82;;;5.07;;
22024;SDS011;11176;51.448;6.650;2022-12-07T15:29:40;7.70;;;4.00;;
22024;SDS011;11176;51.448;6.650;2022-12-07T15:32:06;10.93;;;4.35;;
22024;SDS011;11176;51.448;6.650;2022-12-07T15:34:33;10.98;;;4.38;;
22024;SDS011;11176;51.448;6.650;2022-12-07T15:37:05;7.55;;;4.13;;
22024;SDS011;11176;51.448;6.650;2022-12-07T15:39:32;9.18;;;4.35;;
22024;SDS011;11176;51.448;6.650;2022-12-07T15:41:59;9.27;;;5.32;;
22024;SDS011;11176;51.448;6.650;2022-12-07T15:44:25;9.82;;;4.80;;
22024;SDS011;11176;51.448;6.650;2022-12-07T15:47:10;13.60;;;5.50;;
22024;SDS011;11176;51.448;6.650;2022-12-07T15:49:37;11.18;;;4.25;;
22024;SDS011;11176;51.448;6.650;2022-12-07T15:52:03;12.48;;;5.00;;
22024;SDS011;11176;51.448;6.650;2022-12-07T15:54:30;10.23;;;4.90;;
22024;SDS011;11176;51.448;6.650;2022-12-07T15:56:58;9.82;;;5.50;;
22024;SDS011;11176;51.448;6.650;2022-12-07T15:59:25;12.20;;;5.75;;
22024;SDS011;11176;51.448;6.650;2022-12-07T16:01:53;9.77;;;5.43;;
22024;SDS011;11176;51.448;6.650;2022-12-07T16:04:19;10.20;;;4.95;;
22024;SDS011;11176;51.448;6.650;2022-12-07T16:06:46;11.07;;;5.07;;
22024;SDS011;11176;51.448;6.650;2022-12-07T16:09:12;9.90;;;4.90;;
22024;SDS011;11176;51.448;6.650;2022-12-07T16:11:39;9.40;;;3.83;;
22024;SDS011;11176;51.448;6.650;2022-12-07T16:14:05;8.35;;;3.90;;
22024;SDS011;11176;51.448;6.650;2022-12-07T16:16:32;11.45;;;3.92;;
22024;SDS011;11176;51.448;6.650;2022-12-07T16:18:59;12.38;;;4.60;;
22024;SDS011;11176;51.448;6.650;2022-12-07T16:21:25;10.70;;;4.75;;
22024;SDS011;11176;51.448;6.650;2022-12-07T16:23:52;10.50;;;4.68;;
22024;SDS011;11176;51.448;6.650;2022-12-07T16:26:19;11.32;;;5.32;;
22024;SDS011;11176;51.448;6.650;2022-12-07T16:28:50;13.18;;;6.45;;
22024;SDS011;11176;51.448;6.650;2022-12-07T16:31:19;10.65;;;5.10;;
22024;SDS011;11176;51.448;6.650;2022-12-07T16:33:49;9.10;;;4.22;;
22024;SDS011;11176;51.448;6.650;2022-12-07T16:36:15;10.52;;;4.32;;
22024;SDS011;11176;51.448;6.650;2022-12-07T16:39:03;10.80;;;4.15;;
22024;SDS011;11176;51.448;6.650;2022-12-07T16:41:31;9.27;;;5.28;;
22024;SDS011;11176;51.448;6.650;2022-12-07T16:43:59;9.73;;;4.18;;
22024;SDS011;11176;51.448;6.650;2022-12-07T16:46:29;8.75;;;3.63;;
22024;SDS011;11176;51.448;6.650;2022-12-07T16:48:57;6.90;;;3.80;;
22024;SDS011;11176;51.448;6.650;2022-12-07T16:51:23;8.50;;;3.70;;
22024;SDS011;11176;51.448;6.650;2022-12-07T16:53:50;11.05;;;4.10;;
22024;SDS011;11176;51.448;6.650;2022-12-07T16:56:18;9.90;;;5.00;;
22024;SDS011;11176;51.448;6.650;2022-12-07T16:58:45;9.40;;;4.47;;
22024;SDS011;11176;51.448;6.650;2022-12-07T17:01:15;10.48;;;3.67;;
22024;SDS011;11176;51.448;6.650;2022-12-07T17:03:43;8.77;;;3.63;;
22024;SDS011;11176;51.448;6.650;2022-12-07T17:06:14;11.77;;;4.05;;
22024;SDS011;11176;51.448;6.650;2022-12-07T17:08:42;9.95;;;5.55;;
22024;SDS011;11176;51.448;6.650;2022-12-07T17:11:13;12.98;;;6.45;;
22024;SDS011;11176;51.448;6.650;2022-12-07T17:13:41;18.65;;;10.05;;
22024;SDS011;11176;51.448;6.650;2022-12-07T17:16:27;18.38;;;7.75;;
22024;SDS011;11176;51.448;6.650;2022-12-07T17:18:53;17.25;;;6.00;;
22024;SDS011;11176;51.448;6.650;2022-12-07T17:21:20;13.50;;;5.90;;
22024;SDS011;11176;51.448;6.650;2022-12-07T17:23:47;11.02;;;5.97;;
22024;SDS011;11176;51.448;6.650;2022-12-07T17:26:15;12.43;;;5.40;;